createdAt,value
2022-10-21T00:00:59.578Z,100.00
2022-10-21T00:03:39.559Z,100.00
2022-10-21T00:06:09.640Z,100.00
2022-10-21T00:08:38.777Z,100.00
2022-10-21T00:11:08.531Z,100.00
2022-10-21T00:13:39.874Z,100.00
2022-10-21T00:16:14.977Z,100.00
2022-10-21T00:18:45.614Z,100.00
2022-10-21T00:21:17.490Z,100.00
2022-10-21T00:23:45.775Z,100.00
2022-10-21T00:26:14.946Z,100.00
2022-10-21T00:28:43.345Z,100.00
2022-10-21T00:31:14.664Z,100.00
2022-10-21T00:33:43.141Z,100.00
2022-10-21T00:36:15.153Z,100.00
2022-10-21T00:38:46.574Z,100.00
2022-10-21T00:41:16.631Z,100.00
2022-10-21T00:43:58.798Z,100.00
2022-10-21T00:46:39.727Z,100.00
2022-10-21T00:49:16.615Z,100.00
2022-10-21T00:51:48.190Z,100.00
2022-10-21T00:54:18.062Z,100.00
2022-10-21T00:56:47.857Z,100.00
2022-10-21T00:59:16.675Z,100.00
2022-10-21T01:01:44.609Z,100.00
2022-10-21T01:04:12.554Z,100.00
2022-10-21T01:06:41.093Z,100.00
2022-10-21T01:09:09.392Z,100.00
2022-10-21T01:11:43.780Z,100.00
2022-10-21T01:17:45.748Z,100.00
2022-10-21T01:20:26.008Z,100.00
2022-10-21T01:23:27.327Z,100.00
2022-10-21T01:26:04.602Z,100.00
2022-10-21T01:28:51.606Z,100.00
2022-10-21T01:31:47.063Z,100.00
2022-10-21T01:34:24.263Z,100.00
2022-10-21T01:37:01.269Z,100.00
2022-10-21T01:39:54.332Z,100.00
2022-10-21T01:42:34.685Z,100.00
2022-10-21T01:45:19.155Z,100.00
2022-10-21T01:47:51.521Z,100.00
2022-10-21T01:50:26.442Z,100.00
2022-10-21T01:53:06.821Z,100.00
2022-10-21T01:55:37.368Z,100.00
2022-10-21T01:58:09.668Z,100.00
2022-10-21T02:00:39.419Z,100.00
2022-10-21T02:03:12.027Z,100.00
2022-10-21T02:05:40.294Z,100.00
2022-10-21T02:08:08.453Z,100.00
2022-10-21T02:10:41.988Z,100.00
2022-10-21T02:13:13.208Z,100.00
2022-10-21T02:15:43.327Z,100.00
2022-10-21T02:18:24.586Z,100.00
2022-10-21T02:20:59.755Z,100.00
2022-10-21T02:23:49.444Z,100.00
2022-10-21T02:26:17.901Z,100.00
2022-10-21T02:28:46.817Z,100.00
2022-10-21T02:31:39.748Z,100.00
2022-10-21T02:34:30.272Z,100.00
2022-10-21T02:37:31.729Z,100.00
2022-10-21T02:40:13.528Z,100.00
2022-10-21T02:42:50.958Z,100.00
2022-10-21T02:45:19.446Z,100.00
2022-10-21T02:47:48.411Z,100.00
2022-10-21T02:50:16.801Z,100.00
2022-10-21T02:52:44.741Z,100.00
2022-10-21T02:55:14.963Z,100.00
2022-10-21T02:57:42.869Z,100.00
2022-10-21T03:00:11.782Z,100.00
2022-10-21T03:02:39.740Z,100.00
2022-10-21T03:05:09.461Z,100.00
2022-10-21T03:07:37.631Z,100.00
2022-10-21T03:10:06.129Z,100.00
2022-10-21T03:12:34.127Z,100.00
2022-10-21T03:15:02.325Z,100.00
2022-10-21T03:17:30.356Z,100.00
2022-10-21T03:19:58.381Z,100.00
2022-10-21T03:22:26.496Z,100.00
2022-10-21T03:24:54.302Z,100.00
2022-10-21T03:27:22.868Z,100.00
2022-10-21T03:29:50.866Z,100.00
2022-10-21T03:32:18.852Z,100.00
2022-10-21T03:34:46.994Z,100.00
2022-10-21T03:37:14.979Z,100.00
2022-10-21T03:39:43.591Z,100.00
2022-10-21T03:42:11.351Z,100.00
2022-10-21T03:44:40.110Z,100.00
2022-10-21T03:47:08.629Z,100.00
2022-10-21T03:49:36.437Z,100.00
2022-10-21T03:52:04.445Z,100.00
2022-10-21T03:54:32.478Z,100.00
2022-10-21T03:57:00.867Z,100.00
2022-10-21T03:59:28.781Z,100.00
2022-10-21T04:01:57.946Z,100.00
2022-10-21T04:04:25.933Z,100.00
2022-10-21T04:06:55.126Z,100.00
2022-10-21T04:09:23.087Z,100.00
2022-10-21T04:11:51.414Z,100.00
2022-10-21T04:14:20.238Z,100.00
2022-10-21T04:16:53.567Z,100.00
2022-10-21T04:19:30.286Z,100.00
2022-10-21T04:21:59.638Z,100.00
2022-10-21T04:24:27.889Z,100.00
2022-10-21T04:26:56.071Z,100.00
2022-10-21T04:29:24.654Z,100.00
2022-10-21T04:31:52.745Z,100.00
2022-10-21T04:34:20.802Z,100.00
2022-10-21T04:36:49.344Z,100.00
2022-10-21T04:39:18.141Z,100.00
2022-10-21T04:41:48.362Z,100.00
2022-10-21T04:44:16.264Z,100.00
2022-10-21T04:46:45.258Z,100.00
2022-10-21T04:49:13.708Z,100.00
2022-10-21T04:51:42.221Z,100.00
2022-10-21T04:54:10.254Z,100.00
2022-10-21T04:56:39.196Z,100.00
2022-10-21T04:59:07.704Z,100.00
2022-10-21T05:01:35.978Z,100.00
2022-10-21T05:04:03.966Z,100.00
2022-10-21T05:06:32.130Z,100.00
2022-10-21T05:09:00.382Z,100.00
2022-10-21T05:11:28.899Z,100.00
2022-10-21T05:13:56.991Z,100.00
2022-10-21T05:16:25.316Z,100.00
2022-10-21T05:18:53.603Z,100.00
2022-10-21T05:21:21.689Z,100.00
2022-10-21T05:23:50.258Z,100.00
2022-10-21T05:26:18.828Z,100.00
2022-10-21T05:28:47.190Z,100.00
2022-10-21T05:31:15.302Z,100.00
2022-10-21T05:33:43.269Z,100.00
2022-10-21T05:36:11.454Z,100.00
2022-10-21T05:38:39.657Z,100.00
2022-10-21T05:41:08.229Z,100.00
2022-10-21T05:43:38.775Z,100.00
2022-10-21T05:46:08.785Z,100.00
2022-10-21T05:48:37.948Z,100.00
2022-10-21T05:51:06.747Z,100.00
2022-10-21T05:53:35.298Z,100.00
2022-10-21T05:56:06.791Z,100.00
2022-10-21T05:58:36.016Z,100.00
2022-10-21T06:01:04.421Z,100.00
2022-10-21T06:03:35.026Z,100.00
2022-10-21T06:06:05.756Z,100.00
2022-10-21T06:08:35.910Z,100.00
2022-10-21T06:11:13.784Z,100.00
2022-10-21T06:13:43.007Z,100.00
2022-10-21T06:16:13.140Z,100.00
2022-10-21T06:18:42.270Z,100.00
2022-10-21T06:21:11.397Z,100.00
2022-10-21T06:23:40.362Z,100.00
2022-10-21T06:26:13.767Z,100.00
2022-10-21T06:28:43.630Z,100.00
2022-10-21T06:31:18.958Z,100.00
2022-10-21T06:33:47.988Z,100.00
2022-10-21T06:36:17.168Z,100.00
2022-10-21T06:38:49.172Z,100.00
2022-10-21T06:41:20.329Z,100.00
2022-10-21T06:43:48.866Z,100.00
2022-10-21T06:46:17.829Z,100.00
2022-10-21T06:48:45.738Z,100.00
2022-10-21T06:51:20.489Z,100.00
2022-10-21T06:53:56.679Z,100.00
2022-10-21T06:56:26.695Z,100.00
2022-10-21T06:58:57.865Z,100.00
2022-10-21T07:01:48.122Z,100.00
2022-10-21T07:04:21.630Z,100.00
2022-10-21T07:06:49.676Z,100.00
2022-10-21T07:09:18.066Z,100.00
2022-10-21T07:11:46.928Z,100.00
2022-10-21T07:14:15.274Z,100.00
2022-10-21T07:16:43.766Z,100.00
2022-10-21T07:19:11.779Z,100.00
2022-10-21T07:21:39.999Z,100.00
2022-10-21T07:24:08.103Z,100.00
2022-10-21T07:26:36.069Z,100.00
2022-10-21T07:29:04.965Z,100.00
2022-10-21T07:31:36.610Z,100.00
2022-10-21T07:34:06.626Z,100.00
2022-10-21T07:36:40.640Z,100.00
2022-10-21T07:39:12.899Z,100.00
2022-10-21T07:41:44.869Z,100.00
2022-10-21T07:44:13.558Z,100.00
2022-10-21T07:46:42.911Z,100.00
2022-10-21T07:49:12.781Z,100.00
2022-10-21T07:51:41.628Z,100.00
2022-10-21T07:54:10.295Z,100.00
2022-10-21T07:56:45.397Z,100.00
2022-10-21T07:59:14.151Z,100.00
2022-10-21T08:04:24.846Z,100.00
2022-10-21T08:06:53.560Z,100.00
2022-10-21T08:09:22.151Z,100.00
2022-10-21T08:11:50.161Z,100.00
2022-10-21T08:14:18.298Z,100.00
2022-10-21T08:16:46.409Z,100.00
2022-10-21T08:19:20.402Z,100.00
2022-10-21T08:21:50.561Z,100.00
2022-10-21T08:24:18.905Z,100.00
2022-10-21T08:26:47.176Z,100.00
2022-10-21T08:29:15.567Z,100.00
2022-10-21T08:31:43.520Z,100.00
2022-10-21T08:34:11.678Z,100.00
2022-10-21T08:36:40.392Z,100.00
2022-10-21T08:39:09.376Z,100.00
2022-10-21T08:41:54.500Z,100.00
2022-10-21T08:44:31.733Z,100.00
2022-10-21T08:47:11.384Z,100.00
2022-10-21T08:50:05.502Z,100.00
2022-10-21T08:52:45.371Z,100.00
2022-10-21T08:55:37.922Z,100.00
2022-10-21T08:58:06.696Z,100.00
2022-10-21T09:00:44.922Z,100.00
2022-10-21T09:03:13.677Z,100.00
2022-10-21T09:05:51.272Z,100.00
2022-10-21T09:08:42.096Z,100.00
2022-10-21T09:11:21.863Z,100.00
2022-10-21T09:14:05.300Z,100.00
2022-10-21T09:16:58.309Z,100.00
2022-10-21T09:19:44.759Z,100.00
2022-10-21T09:22:45.038Z,100.00
2022-10-21T09:25:24.743Z,100.00
2022-10-21T09:27:56.972Z,100.00
2022-10-21T09:30:26.323Z,100.00
2022-10-21T09:33:00.272Z,100.00
2022-10-21T09:35:35.687Z,100.00
2022-10-21T09:38:27.047Z,100.00
2022-10-21T09:41:03.723Z,100.00
2022-10-21T09:43:33.257Z,100.00
2022-10-21T09:46:01.656Z,100.00
2022-10-21T09:49:16.276Z,100.00
2022-10-21T09:51:38.569Z,100.00
2022-10-21T09:54:17.240Z,100.00
2022-10-21T09:57:12.186Z,100.00
2022-10-21T09:59:51.972Z,100.00
2022-10-21T10:02:48.419Z,100.00
2022-10-21T10:05:44.500Z,100.00
2022-10-21T10:08:33.324Z,100.00
2022-10-21T10:11:05.558Z,99.91
2022-10-21T10:13:34.987Z,98.61
2022-10-21T10:16:27.067Z,98.90
2022-10-21T10:19:24.257Z,97.07
2022-10-21T10:22:28.917Z,98.97
2022-10-21T10:25:17.235Z,99.47
2022-10-21T10:28:00.684Z,94.58
2022-10-21T10:30:35.754Z,94.62
2022-10-21T10:33:09.007Z,93.63
2022-10-21T10:35:38.983Z,91.71
2022-10-21T10:38:07.356Z,93.61
2022-10-21T10:40:43.543Z,95.49
2022-10-21T10:43:20.899Z,94.05
2022-10-21T10:45:56.775Z,95.95
2022-10-21T10:48:43.507Z,94.34
2022-10-21T10:51:32.986Z,91.81
2022-10-21T10:54:08.894Z,92.40
2022-10-21T10:56:51.437Z,91.97
2022-10-21T10:59:32.834Z,91.57
2022-10-21T11:02:40.186Z,89.50
2022-10-21T11:05:31.789Z,90.96
2022-10-21T11:08:07.151Z,90.21
2022-10-21T11:11:12.557Z,89.89
2022-10-21T11:13:42.294Z,82.74
2022-10-21T11:16:45.109Z,83.78
2022-10-21T11:19:40.357Z,85.51
2022-10-21T11:22:17.758Z,84.30
2022-10-21T11:25:05.644Z,82.24
2022-10-21T11:27:55.407Z,80.20
2022-10-21T11:30:48.615Z,79.64
2022-10-21T11:33:19.697Z,78.81
2022-10-21T11:36:10.334Z,78.43
2022-10-21T11:39:19.305Z,80.71
2022-10-21T11:42:06.863Z,78.97
2022-10-21T11:44:53.821Z,79.45
2022-10-21T11:47:32.175Z,79.91
2022-10-21T11:50:21.413Z,79.39
2022-10-21T11:53:16.157Z,79.80
2022-10-21T11:56:27.721Z,80.74
2022-10-21T11:59:21.170Z,79.96
2022-10-21T12:02:01.826Z,79.80
2022-10-21T12:04:45.189Z,80.77
2022-10-21T12:07:31.869Z,79.90
2022-10-21T12:10:10.263Z,79.06
2022-10-21T12:12:46.844Z,77.27
2022-10-21T12:15:21.536Z,75.53
2022-10-21T12:17:50.713Z,76.99
2022-10-21T12:20:28.354Z,77.75
2022-10-21T12:23:04.994Z,76.90
2022-10-21T12:26:18.301Z,75.13
2022-10-21T12:28:58.686Z,76.60
2022-10-21T12:31:49.376Z,73.89
2022-10-21T12:34:18.647Z,75.94
2022-10-21T12:36:52.014Z,76.17
2022-10-21T12:39:35.680Z,75.42
2022-10-21T12:42:13.788Z,76.39
2022-10-21T12:44:50.280Z,74.41
2022-10-21T12:47:29.010Z,75.38
2022-10-21T12:50:24.885Z,76.13
2022-10-21T12:53:27.859Z,77.83
2022-10-21T12:56:02.630Z,78.19
2022-10-21T12:58:44.398Z,77.22
2022-10-21T13:01:47.152Z,79.52
2022-10-21T13:04:35.667Z,79.17
2022-10-21T13:07:15.890Z,77.43
2022-10-21T13:10:09.574Z,77.86
2022-10-21T13:12:38.737Z,75.80
2022-10-21T13:15:23.181Z,74.36
2022-10-21T13:17:56.530Z,71.64
2022-10-21T13:20:25.716Z,70.08
2022-10-21T13:23:15.873Z,70.50
2022-10-21T13:25:45.544Z,66.89
2022-10-21T13:28:14.600Z,66.86
2022-10-21T13:30:50.058Z,67.93
2022-10-21T13:33:23.671Z,68.47
2022-10-21T13:36:03.504Z,69.01
2022-10-21T13:38:37.371Z,69.84
2022-10-21T13:41:20.278Z,69.15
2022-10-21T13:43:55.136Z,71.16
2022-10-21T13:46:40.711Z,72.09
2022-10-21T13:49:34.036Z,73.80
2022-10-21T13:52:06.349Z,76.44
2022-10-21T13:54:36.165Z,76.87
2022-10-21T13:57:08.779Z,77.27
2022-10-21T13:59:37.307Z,78.87
2022-10-21T14:02:05.385Z,78.86
2022-10-21T14:04:40.563Z,79.35
2022-10-21T14:07:18.105Z,80.85
2022-10-21T14:09:50.082Z,81.63
2022-10-21T14:12:33.860Z,83.44
2022-10-21T14:15:07.582Z,84.39
2022-10-21T14:17:42.494Z,84.30
2022-10-21T14:20:18.564Z,85.17
2022-10-21T14:22:54.141Z,85.16
2022-10-21T14:25:25.686Z,86.10
2022-10-21T14:27:59.294Z,86.38
2022-10-21T14:30:32.436Z,86.88
2022-10-21T14:33:03.750Z,89.87
2022-10-21T14:35:32.911Z,88.94
2022-10-21T14:38:22.765Z,89.87
2022-10-21T14:41:05.880Z,92.93
2022-10-21T14:43:44.129Z,93.01
2022-10-21T14:46:22.149Z,94.42
2022-10-21T14:49:04.943Z,94.38
2022-10-21T14:51:39.193Z,94.89
2022-10-21T14:54:21.222Z,97.23
2022-10-21T14:56:51.393Z,98.60
2022-10-21T14:59:26.811Z,99.29
2022-10-21T15:01:59.398Z,99.67
2022-10-21T15:04:42.752Z,100.00
2022-10-21T15:09:58.519Z,100.00
2022-10-21T15:12:27.393Z,100.00
2022-10-21T15:14:58.997Z,100.00
2022-10-21T15:18:14.606Z,100.00
2022-10-21T15:20:58.441Z,100.00
2022-10-21T15:23:39.227Z,100.00
2022-10-21T15:26:26.583Z,100.00
2022-10-21T15:28:57.750Z,100.00
2022-10-21T15:31:29.615Z,100.00
2022-10-21T15:33:59.026Z,100.00
2022-10-21T15:36:28.397Z,100.00
2022-10-21T15:38:57.809Z,100.00
2022-10-21T15:41:29.632Z,100.00
2022-10-21T15:44:05.958Z,100.00
2022-10-21T15:46:42.412Z,100.00
2022-10-21T15:49:25.470Z,100.00
2022-10-21T15:51:54.764Z,100.00
2022-10-21T15:54:24.025Z,100.00
2022-10-21T15:56:55.375Z,100.00
2022-10-21T15:59:31.804Z,100.00
2022-10-21T16:02:01.118Z,100.00
2022-10-21T16:04:30.967Z,100.00
2022-10-21T16:07:06.205Z,100.00
2022-10-21T16:09:35.597Z,100.00
2022-10-21T16:12:06.337Z,100.00
2022-10-21T16:14:36.762Z,100.00
2022-10-21T16:17:05.864Z,100.00
2022-10-21T16:19:34.752Z,100.00
2022-10-21T16:22:04.670Z,100.00
2022-10-21T16:24:34.708Z,100.00
2022-10-21T16:27:04.286Z,100.00
2022-10-21T16:29:33.785Z,100.00
2022-10-21T16:32:02.737Z,100.00
2022-10-21T16:34:31.420Z,100.00
2022-10-21T16:37:01.676Z,100.00
2022-10-21T16:39:30.804Z,100.00
2022-10-21T16:42:02.334Z,100.00
2022-10-21T16:44:31.879Z,100.00
2022-10-21T16:47:00.633Z,100.00
2022-10-21T16:49:29.773Z,100.00
2022-10-21T16:52:01.043Z,100.00
2022-10-21T16:54:29.687Z,100.00
2022-10-21T16:57:01.220Z,100.00
2022-10-21T16:59:45.547Z,100.00
2022-10-21T17:02:40.014Z,100.00
2022-10-21T17:05:13.153Z,100.00
2022-10-21T17:07:42.422Z,100.00
2022-10-21T17:10:11.588Z,100.00
2022-10-21T17:12:44.050Z,100.00
2022-10-21T17:15:20.342Z,100.00
2022-10-21T17:17:49.457Z,100.00
2022-10-21T17:20:18.742Z,100.00
2022-10-21T17:22:47.454Z,100.00
2022-10-21T17:25:23.737Z,100.00
2022-10-21T17:27:52.738Z,100.00
2022-10-21T17:30:27.004Z,100.00
2022-10-21T17:33:00.616Z,100.00
2022-10-21T17:35:30.907Z,100.00
2022-10-21T17:37:59.775Z,100.00
2022-10-21T17:40:29.042Z,100.00
2022-10-21T17:43:03.812Z,100.00
2022-10-21T17:45:34.038Z,100.00
2022-10-21T17:48:03.327Z,100.00
2022-10-21T17:50:33.544Z,100.00
2022-10-21T17:53:02.644Z,100.00
2022-10-21T17:55:32.042Z,100.00
2022-10-21T17:58:01.874Z,100.00
2022-10-21T18:00:31.027Z,100.00
2022-10-21T18:03:03.511Z,100.00
2022-10-21T18:05:34.155Z,100.00
2022-10-21T18:08:03.988Z,100.00
2022-10-21T18:10:48.516Z,100.00
2022-10-21T18:13:19.006Z,100.00
2022-10-21T18:15:51.814Z,100.00
2022-10-21T18:18:24.301Z,100.00
2022-10-21T18:20:56.859Z,100.00
2022-10-21T18:23:26.127Z,100.00
2022-10-21T18:25:54.986Z,100.00
2022-10-21T18:28:24.283Z,100.00
2022-10-21T18:30:55.879Z,100.00
2022-10-21T18:33:25.730Z,100.00
2022-10-21T18:35:54.995Z,100.00
2022-10-21T18:38:28.677Z,100.00
2022-10-21T18:41:15.258Z,100.00
2022-10-21T18:43:53.319Z,100.00
2022-10-21T18:46:24.418Z,100.00
2022-10-21T18:48:54.340Z,100.00
2022-10-21T18:51:24.411Z,100.00
2022-10-21T18:53:57.697Z,100.00
2022-10-21T18:56:29.358Z,100.00
2022-10-21T18:59:03.046Z,100.00
2022-10-21T19:01:32.906Z,100.00
2022-10-21T19:04:03.059Z,100.00
2022-10-21T19:06:45.950Z,100.00
2022-10-21T19:09:17.475Z,100.00
2022-10-21T19:11:50.488Z,100.00
2022-10-21T19:14:20.400Z,100.00
2022-10-21T19:16:50.690Z,100.00
2022-10-21T19:19:26.117Z,100.00
2022-10-21T19:21:56.346Z,100.00
2022-10-21T19:24:34.545Z,100.00
2022-10-21T19:27:04.603Z,100.00
2022-10-21T19:29:34.039Z,100.00
2022-10-21T19:32:04.711Z,100.00
2022-10-21T19:34:39.329Z,100.00
2022-10-21T19:37:11.634Z,100.00
2022-10-21T19:39:43.037Z,100.00
2022-10-21T19:42:13.878Z,100.00
2022-10-21T19:44:43.872Z,100.00
2022-10-21T19:47:12.786Z,100.00
2022-10-21T19:49:43.125Z,100.00
2022-10-21T19:52:13.204Z,100.00
2022-10-21T19:54:43.483Z,100.00
2022-10-21T19:57:14.328Z,100.00
2022-10-21T19:59:43.737Z,100.00
2022-10-21T20:02:14.233Z,100.00
2022-10-21T20:04:44.050Z,100.00
2022-10-21T20:07:13.283Z,100.00
2022-10-21T20:09:44.216Z,100.00
2022-10-21T20:12:13.286Z,100.00
2022-10-21T20:14:44.029Z,100.00
2022-10-21T20:17:16.127Z,100.00
2022-10-21T20:19:52.147Z,100.00
2022-10-21T20:22:22.470Z,100.00
2022-10-21T20:24:52.396Z,100.00
2022-10-21T20:27:21.504Z,100.00
2022-10-21T20:29:52.210Z,100.00
2022-10-21T20:32:23.077Z,100.00
2022-10-21T20:34:53.207Z,100.00
2022-10-21T20:37:22.767Z,100.00
2022-10-21T20:39:51.982Z,100.00
2022-10-21T20:42:21.073Z,100.00
2022-10-21T20:44:50.487Z,100.00
2022-10-21T20:47:19.746Z,100.00
2022-10-21T20:49:49.317Z,100.00
2022-10-21T20:52:19.243Z,100.00
2022-10-21T20:54:49.039Z,100.00
2022-10-21T20:57:21.333Z,100.00
2022-10-21T20:59:49.638Z,100.00
2022-10-21T21:02:18.290Z,100.00
2022-10-21T21:04:47.142Z,100.00
2022-10-21T21:07:17.476Z,100.00
2022-10-21T21:10:01.673Z,100.00
2022-10-21T21:12:32.565Z,100.00
2022-10-21T21:15:01.564Z,100.00
2022-10-21T21:17:30.564Z,100.00
2022-10-21T21:20:00.420Z,100.00
2022-10-21T21:22:29.708Z,100.00
2022-10-21T21:24:59.141Z,100.00
2022-10-21T21:27:29.831Z,100.00
2022-10-21T21:29:58.447Z,100.00
2022-10-21T21:32:28.134Z,100.00
2022-10-21T21:35:00.137Z,100.00
2022-10-21T21:37:31.574Z,100.00
2022-10-21T21:40:01.577Z,100.00
2022-10-21T21:42:31.373Z,100.00
2022-10-21T21:45:00.018Z,100.00
2022-10-21T21:47:29.229Z,100.00
2022-10-21T21:50:00.800Z,100.00
2022-10-21T21:52:29.926Z,100.00
2022-10-21T21:54:58.525Z,100.00
2022-10-21T21:57:29.218Z,100.00
2022-10-21T21:59:57.858Z,100.00
2022-10-21T22:02:26.407Z,100.00
2022-10-21T22:04:54.818Z,100.00
2022-10-21T22:07:22.937Z,100.00
2022-10-21T22:09:51.213Z,100.00
2022-10-21T22:12:23.065Z,100.00
2022-10-21T22:14:52.921Z,100.00
2022-10-21T22:17:21.463Z,100.00
2022-10-21T22:19:53.710Z,100.00
2022-10-21T22:22:22.698Z,100.00
2022-10-21T22:24:51.103Z,100.00
2022-10-21T22:27:19.439Z,100.00
2022-10-21T22:29:48.029Z,100.00
2022-10-21T22:32:18.406Z,100.00
2022-10-21T22:34:46.847Z,100.00
2022-10-21T22:37:16.146Z,100.00
2022-10-21T22:39:44.531Z,100.00
2022-10-21T22:42:12.910Z,100.00
2022-10-21T22:44:41.020Z,100.00
2022-10-21T22:47:09.613Z,100.00
2022-10-21T22:49:38.136Z,100.00
2022-10-21T22:52:06.593Z,100.00
2022-10-21T22:54:49.035Z,100.00
2022-10-21T22:57:18.293Z,100.00
2022-10-21T22:59:52.857Z,100.00
2022-10-21T23:02:22.330Z,100.00
2022-10-21T23:04:50.695Z,100.00
2022-10-21T23:07:18.938Z,100.00
2022-10-21T23:09:47.615Z,100.00
2022-10-21T23:12:15.830Z,100.00
2022-10-21T23:14:44.109Z,100.00
2022-10-21T23:17:13.024Z,100.00
2022-10-21T23:19:41.250Z,100.00
2022-10-21T23:22:10.882Z,100.00
2022-10-21T23:24:38.887Z,100.00
2022-10-21T23:27:07.515Z,100.00
2022-10-21T23:29:36.090Z,100.00
2022-10-21T23:32:04.857Z,100.00
2022-10-21T23:34:32.964Z,100.00
2022-10-21T23:37:01.018Z,100.00
2022-10-21T23:39:29.531Z,100.00
2022-10-21T23:41:57.780Z,100.00
2022-10-21T23:44:29.400Z,100.00
2022-10-21T23:46:57.618Z,100.00
2022-10-21T23:49:25.703Z,100.00
2022-10-21T23:51:54.115Z,100.00
2022-10-21T23:54:22.288Z,100.00
2022-10-21T23:56:50.916Z,100.00
2022-10-21T23:59:19.195Z,100.00
